createdAt,value
2018-03-03T00:00:51.641Z,-4.36
2018-03-03T00:01:54.942Z,-4.31
2018-03-03T00:02:58.497Z,-4.35
2018-03-03T00:04:01.883Z,-4.32
2018-03-03T00:05:05.284Z,-4.36
2018-03-03T00:06:08.554Z,-4.46
2018-03-03T00:07:11.843Z,-4.55
2018-03-03T00:08:15.344Z,-4.49
2018-03-03T00:09:18.975Z,-4.43
2018-03-03T00:10:22.379Z,-4.37
2018-03-03T00:11:25.732Z,-4.29
2018-03-03T00:12:29.758Z,-4.22
2018-03-03T00:13:33.167Z,-4.21
2018-03-03T00:14:36.500Z,-4.31
2018-03-03T00:15:40.208Z,-4.34
2018-03-03T00:16:43.581Z,-4.40
2018-03-03T00:17:46.900Z,-4.44
2018-03-03T00:18:50.432Z,-4.42
2018-03-03T00:19:54.690Z,-4.37
2018-03-03T00:20:57.985Z,-4.40
2018-03-03T00:22:01.549Z,-4.40
2018-03-03T00:23:05.019Z,-4.34
2018-03-03T00:24:08.472Z,-4.30
2018-03-03T00:25:11.993Z,-4.28
2018-03-03T00:26:15.349Z,-4.25
2018-03-03T00:27:18.817Z,-4.27
2018-03-03T00:28:22.498Z,-4.31
2018-03-03T00:29:25.892Z,-4.31
2018-03-03T00:30:29.354Z,-4.34
2018-03-03T00:31:32.757Z,-4.34
2018-03-03T00:32:36.179Z,-4.32
2018-03-03T00:33:39.602Z,-4.36
2018-03-03T00:34:43.233Z,-4.38
2018-03-03T00:35:46.742Z,-4.40
2018-03-03T00:36:50.264Z,-4.35
2018-03-03T00:37:53.518Z,-4.33
2018-03-03T00:38:56.854Z,-4.34
2018-03-03T00:40:00.103Z,-4.40
2018-03-03T00:41:03.770Z,-4.47
2018-03-03T00:42:07.140Z,-4.52
2018-03-03T00:43:10.440Z,-4.42
2018-03-03T00:44:13.866Z,-4.44
2018-03-03T00:45:17.214Z,-4.51
2018-03-03T00:46:20.500Z,-4.42
2018-03-03T00:47:24.130Z,-4.40
2018-03-03T00:48:28.404Z,-4.38
2018-03-03T00:49:31.811Z,-4.41
2018-03-03T00:50:35.175Z,-4.35
2018-03-03T00:51:38.723Z,-4.35
2018-03-03T00:52:42.202Z,-4.41
2018-03-03T00:53:45.823Z,-4.41
2018-03-03T00:54:49.371Z,-4.48
2018-03-03T00:55:53.023Z,-4.42
2018-03-03T00:56:56.557Z,-4.39
2018-03-03T00:57:59.994Z,-4.45
2018-03-03T00:59:03.495Z,-4.47
2018-03-03T01:00:07.366Z,-4.41
2018-03-03T01:01:10.975Z,-4.37
2018-03-03T01:02:14.565Z,-4.33
2018-03-03T01:03:18.107Z,-4.28
2018-03-03T01:04:21.670Z,-4.25
2018-03-03T01:05:25.320Z,-4.24
2018-03-03T01:06:29.136Z,-4.18
2018-03-03T01:07:32.788Z,-4.24
2018-03-03T01:08:36.269Z,-4.28
2018-03-03T01:09:39.867Z,-4.30
2018-03-03T01:10:43.340Z,-4.30
2018-03-03T01:11:46.874Z,-4.31
2018-03-03T01:12:50.621Z,-4.30
2018-03-03T01:13:54.086Z,-4.25
2018-03-03T01:14:57.650Z,-4.24
2018-03-03T01:16:01.190Z,-4.30
2018-03-03T01:17:04.980Z,-4.30
2018-03-03T01:18:08.361Z,-4.31
2018-03-03T01:19:12.142Z,-4.25
2018-03-03T01:20:15.581Z,-4.18
2018-03-03T01:21:19.160Z,-4.24
2018-03-03T01:22:23.009Z,-4.33
2018-03-03T01:23:26.413Z,-4.37
2018-03-03T01:24:30.004Z,-4.42
2018-03-03T01:25:34.060Z,-4.39
2018-03-03T01:26:37.821Z,-4.47
2018-03-03T01:27:41.337Z,-4.43
2018-03-03T01:28:44.991Z,-4.45
2018-03-03T01:29:48.783Z,-4.40
2018-03-03T01:30:52.559Z,-4.39
2018-03-03T01:31:56.506Z,-4.36
2018-03-03T01:33:00.239Z,-4.37
2018-03-03T01:34:03.989Z,-4.37
2018-03-03T01:35:07.577Z,-4.33
2018-03-03T01:36:11.323Z,-4.32
2018-03-03T01:37:14.782Z,-4.34
2018-03-03T01:38:18.617Z,-4.37
2018-03-03T01:39:22.374Z,-4.38
2018-03-03T01:40:25.878Z,-4.38
2018-03-03T01:41:29.402Z,-4.34
2018-03-03T01:42:32.897Z,-4.34
2018-03-03T01:43:36.486Z,-4.31
2018-03-03T01:44:40.394Z,-4.27
2018-03-03T01:45:44.063Z,-4.23
2018-03-03T01:46:47.732Z,-4.23
2018-03-03T01:47:51.469Z,-4.24
2018-03-03T01:48:54.881Z,-4.23
2018-03-03T01:49:58.502Z,-4.22
2018-03-03T01:51:02.628Z,-4.15
2018-03-03T01:52:06.256Z,-4.12
2018-03-03T01:53:09.826Z,-4.13
2018-03-03T01:54:13.416Z,-4.09
2018-03-03T01:55:17.069Z,-4.25
2018-03-03T01:56:20.534Z,-4.31
2018-03-03T01:57:24.728Z,-4.25
2018-03-03T01:58:28.382Z,-4.17
2018-03-03T01:59:31.757Z,-4.15
2018-03-03T02:00:35.210Z,-4.16
2018-03-03T02:01:38.766Z,-4.27
2018-03-03T02:02:42.522Z,-4.38
2018-03-03T02:03:46.182Z,-4.26
2018-03-03T02:04:49.862Z,-4.15
2018-03-03T02:05:53.811Z,-4.21
2018-03-03T02:06:57.318Z,-4.18
2018-03-03T02:08:00.904Z,-4.16
2018-03-03T02:09:04.859Z,-4.12
2018-03-03T02:10:08.497Z,-4.13
2018-03-03T02:11:12.249Z,-4.09
2018-03-03T02:12:15.828Z,-4.09
2018-03-03T02:13:19.435Z,-4.11
2018-03-03T02:14:22.991Z,-4.25
2018-03-03T02:15:26.922Z,-4.16
2018-03-03T02:16:30.467Z,-4.16
2018-03-03T02:17:34.213Z,-4.06
2018-03-03T02:18:39.051Z,-4.06
2018-03-03T02:19:42.842Z,-4.12
2018-03-03T02:20:46.609Z,-4.22
2018-03-03T02:21:50.619Z,-4.14
2018-03-03T02:22:54.108Z,-4.13
2018-03-03T02:23:57.889Z,-4.18
2018-03-03T02:25:01.385Z,-4.20
2018-03-03T02:26:05.009Z,-4.22
2018-03-03T02:27:08.998Z,-4.32
2018-03-03T02:28:13.273Z,-4.31
2018-03-03T02:29:17.049Z,-4.29
2018-03-03T02:30:20.711Z,-4.26
2018-03-03T02:31:24.506Z,-4.20
2018-03-03T02:32:28.448Z,-4.25
2018-03-03T02:33:32.194Z,-4.34
2018-03-03T02:34:36.027Z,-4.25
2018-03-03T02:35:39.752Z,-4.24
2018-03-03T02:36:43.384Z,-4.27
2018-03-03T02:37:46.916Z,-4.25
2018-03-03T02:38:50.415Z,-4.30
2018-03-03T02:39:54.062Z,-4.30
2018-03-03T02:40:58.240Z,-4.32
2018-03-03T02:42:01.838Z,-4.35
2018-03-03T02:43:05.666Z,-4.38
2018-03-03T02:44:09.699Z,-4.34
2018-03-03T02:45:13.325Z,-4.35
2018-03-03T02:46:16.809Z,-4.40
2018-03-03T02:47:20.712Z,-4.36
2018-03-03T02:48:24.497Z,-4.36
2018-03-03T02:49:28.123Z,-4.31
2018-03-03T02:50:31.793Z,-4.30
2018-03-03T02:51:35.398Z,-4.25
2018-03-03T02:52:39.124Z,-4.30
2018-03-03T02:53:43.151Z,-4.30
2018-03-03T02:54:47.088Z,-4.26
2018-03-03T02:55:51.430Z,-4.28
2018-03-03T02:56:54.996Z,-4.26
2018-03-03T02:57:59.996Z,-4.28
2018-03-03T02:59:03.636Z,-4.36
2018-03-03T03:00:08.602Z,-4.41
2018-03-03T03:01:12.279Z,-4.40
2018-03-03T03:02:15.808Z,-4.36
2018-03-03T03:03:19.438Z,-4.38
2018-03-03T03:04:22.891Z,-4.30
2018-03-03T03:05:26.579Z,-4.26
2018-03-03T03:06:30.603Z,-4.30
2018-03-03T03:07:34.216Z,-4.28
2018-03-03T03:08:38.102Z,-4.27
2018-03-03T03:09:41.751Z,-4.23
2018-03-03T03:10:45.965Z,-4.24
2018-03-03T03:11:49.500Z,-4.25
2018-03-03T03:12:53.406Z,-4.21
2018-03-03T03:13:56.988Z,-4.22
2018-03-03T03:15:00.579Z,-4.25
2018-03-03T03:16:04.213Z,-4.17
2018-03-03T03:17:07.693Z,-4.14
2018-03-03T03:18:11.287Z,-4.19
2018-03-03T03:19:15.416Z,-4.26
2018-03-03T03:20:19.638Z,-4.30
2018-03-03T03:21:23.106Z,-4.28
2018-03-03T03:22:26.819Z,-4.21
2018-03-03T03:23:30.686Z,-4.20
2018-03-03T03:24:34.306Z,-4.21
2018-03-03T03:25:38.128Z,-4.17
2018-03-03T03:26:41.800Z,-4.21
2018-03-03T03:27:45.400Z,-4.19
2018-03-03T03:28:48.921Z,-4.23
2018-03-03T03:29:52.467Z,-4.16
2018-03-03T03:30:55.951Z,-4.21
2018-03-03T03:31:59.651Z,-4.27
2018-03-03T03:33:03.344Z,-4.25
2018-03-03T03:34:06.742Z,-4.25
2018-03-03T03:35:10.189Z,-4.26
2018-03-03T03:36:13.736Z,-4.25
2018-03-03T03:37:17.088Z,-4.23
2018-03-03T03:38:20.919Z,-4.25
2018-03-03T03:39:24.437Z,-4.24
2018-03-03T03:40:27.822Z,-4.24
2018-03-03T03:41:31.289Z,-4.18
2018-03-03T03:42:34.565Z,-4.18
2018-03-03T03:43:38.377Z,-4.25
2018-03-03T03:44:42.235Z,-4.26
2018-03-03T03:45:46.026Z,-4.23
2018-03-03T03:46:49.527Z,-4.16
2018-03-03T03:47:53.292Z,-4.15
2018-03-03T03:48:56.616Z,-4.17
2018-03-03T03:49:59.862Z,-4.15
2018-03-03T03:51:03.659Z,-4.09
2018-03-03T03:52:07.056Z,-4.11
2018-03-03T03:53:10.675Z,-4.14
2018-03-03T03:54:14.233Z,-4.23
2018-03-03T03:55:17.610Z,-4.26
2018-03-03T03:56:20.976Z,-4.28
2018-03-03T03:57:24.659Z,-4.26
2018-03-03T03:58:28.036Z,-4.22
2018-03-03T03:59:31.723Z,-4.21
2018-03-03T04:00:35.534Z,-4.24
2018-03-03T04:01:39.261Z,-4.16
2018-03-03T04:02:42.793Z,-4.10
2018-03-03T04:03:46.706Z,-4.06
2018-03-03T04:04:50.203Z,-4.08
2018-03-03T04:05:54.082Z,-4.01
2018-03-03T04:06:57.581Z,-3.94
2018-03-03T04:08:01.118Z,-4.05
2018-03-03T04:09:04.728Z,-4.15
2018-03-03T04:10:08.604Z,-4.31
2018-03-03T04:11:11.856Z,-4.29
2018-03-03T04:12:15.190Z,-4.26
2018-03-03T04:13:18.720Z,-4.25
2018-03-03T04:14:22.382Z,-4.18
2018-03-03T04:15:26.043Z,-4.17
2018-03-03T04:16:29.623Z,-4.13
2018-03-03T04:17:33.180Z,-4.08
2018-03-03T04:18:36.695Z,-4.08
2018-03-03T04:19:39.898Z,-4.12
2018-03-03T04:20:43.072Z,-4.09
2018-03-03T04:21:47.068Z,-4.04
2018-03-03T04:22:51.668Z,-4.01
2018-03-03T04:23:55.291Z,-3.97
2018-03-03T04:24:58.736Z,-4.05
2018-03-03T04:26:02.299Z,-4.15
2018-03-03T04:27:05.819Z,-4.22
2018-03-03T04:28:09.352Z,-4.25
2018-03-03T04:29:13.200Z,-4.23
2018-03-03T04:30:16.348Z,-4.22
2018-03-03T04:31:19.613Z,-4.21
2018-03-03T04:32:23.151Z,-4.23
2018-03-03T04:33:26.599Z,-4.22
2018-03-03T04:34:30.169Z,-4.18
2018-03-03T04:35:33.947Z,-4.20
2018-03-03T04:36:37.423Z,-4.25
2018-03-03T04:37:41.081Z,-4.27
2018-03-03T04:38:44.790Z,-4.32
2018-03-03T04:39:48.219Z,-4.36
2018-03-03T04:40:51.594Z,-4.37
2018-03-03T04:41:55.214Z,-4.42
2018-03-03T04:42:58.466Z,-4.38
2018-03-03T04:44:01.937Z,-4.39
2018-03-03T04:45:05.217Z,-4.43
2018-03-03T04:46:08.769Z,-4.42
2018-03-03T04:47:12.117Z,-4.38
2018-03-03T04:48:15.742Z,-4.44
2018-03-03T04:49:19.016Z,-4.44
2018-03-03T04:50:22.543Z,-4.38
2018-03-03T04:51:26.024Z,-4.43
2018-03-03T04:52:29.390Z,-4.39
2018-03-03T04:53:32.742Z,-4.35
2018-03-03T04:54:36.524Z,-4.36
2018-03-03T04:55:40.959Z,-4.45
2018-03-03T04:56:44.387Z,-4.55
2018-03-03T04:57:47.976Z,-4.54
2018-03-03T04:58:51.500Z,-4.55
2018-03-03T04:59:55.349Z,-4.48
2018-03-03T05:00:59.365Z,-4.47
2018-03-03T05:02:03.330Z,-4.49
2018-03-03T05:03:06.958Z,-4.48
2018-03-03T05:04:10.887Z,-4.45
2018-03-03T05:05:14.773Z,-4.53
2018-03-03T05:06:18.221Z,-4.55
2018-03-03T05:07:22.283Z,-4.49
2018-03-03T05:08:25.772Z,-4.51
2018-03-03T05:09:29.209Z,-4.58
2018-03-03T05:10:32.541Z,-4.55
2018-03-03T05:11:35.931Z,-4.49
2018-03-03T05:12:39.463Z,-4.56
2018-03-03T05:13:43.406Z,-4.59
2018-03-03T05:14:46.857Z,-4.58
2018-03-03T05:15:50.460Z,-4.52
2018-03-03T05:16:54.176Z,-4.47
2018-03-03T05:17:57.730Z,-4.38
2018-03-03T05:19:01.547Z,-4.43
2018-03-03T05:20:05.716Z,-4.51
2018-03-03T05:21:10.131Z,-4.50
2018-03-03T05:22:13.738Z,-4.45
2018-03-03T05:23:17.257Z,-4.44
2018-03-03T05:24:21.292Z,-4.40
2018-03-03T05:25:25.834Z,-4.42
2018-03-03T05:26:29.974Z,-4.43
2018-03-03T05:27:33.634Z,-4.43
2018-03-03T05:28:38.207Z,-4.42
2018-03-03T05:29:42.712Z,-4.42
2018-03-03T05:30:46.550Z,-4.39
2018-03-03T05:31:50.942Z,-4.38
2018-03-03T05:32:54.984Z,-4.41
2018-03-03T05:33:58.722Z,-4.40
2018-03-03T05:35:02.709Z,-4.40
2018-03-03T05:36:06.924Z,-4.42
2018-03-03T05:37:11.374Z,-4.45
2018-03-03T05:38:15.942Z,-4.45
2018-03-03T05:39:19.976Z,-4.44
2018-03-03T05:40:23.616Z,-4.37
2018-03-03T05:41:27.225Z,-4.37
2018-03-03T05:42:31.002Z,-4.32
2018-03-03T05:43:35.044Z,-4.35
2018-03-03T05:44:39.581Z,-4.38
2018-03-03T05:45:43.744Z,-4.34
2018-03-03T05:46:47.461Z,-4.38
2018-03-03T05:47:51.518Z,-4.43
2018-03-03T05:48:55.230Z,-4.40
2018-03-03T05:49:59.161Z,-4.43
2018-03-03T05:51:03.000Z,-4.43
2018-03-03T05:52:07.007Z,-4.41
2018-03-03T05:53:10.972Z,-4.41
2018-03-03T05:54:15.053Z,-4.44
2018-03-03T05:55:19.019Z,-4.49
2018-03-03T05:56:22.954Z,-4.45
2018-03-03T05:57:27.081Z,-4.44
2018-03-03T05:58:31.252Z,-4.40
2018-03-03T05:59:35.648Z,-4.39
2018-03-03T06:00:39.517Z,-4.45
2018-03-03T06:01:43.348Z,-4.44
2018-03-03T06:02:47.242Z,-4.39
2018-03-03T06:03:50.950Z,-4.43
2018-03-03T06:04:54.857Z,-4.39
2018-03-03T06:05:58.790Z,-4.40
2018-03-03T06:07:02.903Z,-4.39
2018-03-03T06:08:06.717Z,-4.47
2018-03-03T06:09:10.229Z,-4.43
2018-03-03T06:10:13.873Z,-4.40
2018-03-03T06:11:17.705Z,-4.31
2018-03-03T06:12:21.151Z,-4.26
2018-03-03T06:13:24.788Z,-4.27
2018-03-03T06:14:28.400Z,-4.23
2018-03-03T06:15:32.203Z,-4.33
2018-03-03T06:16:35.914Z,-4.30
2018-03-03T06:17:39.812Z,-4.35
2018-03-03T06:18:44.093Z,-4.37
2018-03-03T06:19:47.622Z,-4.34
2018-03-03T06:20:51.374Z,-4.38
2018-03-03T06:21:54.998Z,-4.38
2018-03-03T06:22:58.830Z,-4.35
2018-03-03T06:24:02.847Z,-4.40
2018-03-03T06:25:06.525Z,-4.43
2018-03-03T06:26:10.280Z,-4.45
2018-03-03T06:27:14.040Z,-4.42
2018-03-03T06:28:17.763Z,-4.39
2018-03-03T06:29:21.433Z,-4.36
2018-03-03T06:30:25.306Z,-4.30
2018-03-03T06:31:28.854Z,-4.21
2018-03-03T06:32:32.557Z,-4.06
2018-03-03T06:33:36.108Z,-4.15
2018-03-03T06:34:39.607Z,-4.14
2018-03-03T06:35:43.295Z,-4.16
2018-03-03T06:36:46.972Z,-4.17
2018-03-03T06:37:50.580Z,-4.27
2018-03-03T06:38:54.406Z,-4.23
2018-03-03T06:39:58.375Z,-4.23
2018-03-03T06:41:01.974Z,-4.25
2018-03-03T06:42:05.624Z,-4.12
2018-03-03T06:43:09.786Z,-4.17
2018-03-03T06:44:13.474Z,-4.21
2018-03-03T06:45:17.159Z,-4.20
2018-03-03T06:46:20.788Z,-4.06
2018-03-03T06:47:24.697Z,-4.04
2018-03-03T06:48:28.326Z,-4.17
2018-03-03T06:49:32.351Z,-4.22
2018-03-03T06:50:35.935Z,-4.24
2018-03-03T06:51:39.612Z,-4.25
2018-03-03T06:52:43.181Z,-4.18
2018-03-03T06:53:46.832Z,-4.16
2018-03-03T06:54:50.500Z,-4.11
2018-03-03T06:55:54.320Z,-4.13
2018-03-03T06:56:58.004Z,-4.14
2018-03-03T06:58:01.502Z,-4.06
2018-03-03T06:59:05.080Z,-4.12
2018-03-03T07:00:08.571Z,-4.20
2018-03-03T07:01:12.254Z,-4.07
2018-03-03T07:02:16.438Z,-4.01
2018-03-03T07:03:20.104Z,-3.98
2018-03-03T07:04:23.706Z,-3.96
2018-03-03T07:05:27.395Z,-3.98
2018-03-03T07:06:31.181Z,-4.10
2018-03-03T07:07:34.764Z,-4.10
2018-03-03T07:08:38.509Z,-3.98
2018-03-03T07:09:42.188Z,-3.96
2018-03-03T07:10:45.821Z,-4.00
2018-03-03T07:11:50.452Z,-4.06
2018-03-03T07:12:54.240Z,-3.99
2018-03-03T07:13:58.085Z,-3.90
2018-03-03T07:15:02.093Z,-3.91
2018-03-03T07:16:05.505Z,-3.88
2018-03-03T07:17:09.054Z,-3.85
2018-03-03T07:18:12.647Z,-3.81
2018-03-03T07:19:16.174Z,-3.89
2018-03-03T07:20:19.817Z,-3.82
2018-03-03T07:21:23.694Z,-3.84
2018-03-03T07:22:27.422Z,-3.82
2018-03-03T07:23:31.000Z,-3.85
2018-03-03T07:24:34.422Z,-3.84
2018-03-03T07:25:38.027Z,-3.83
2018-03-03T07:26:41.551Z,-3.79
2018-03-03T07:27:45.488Z,-3.76
2018-03-03T07:28:48.969Z,-3.68
2018-03-03T07:29:52.545Z,-3.74
2018-03-03T07:30:56.003Z,-3.80
2018-03-03T07:31:59.554Z,-3.67
2018-03-03T07:33:03.046Z,-3.49
2018-03-03T07:34:06.761Z,-3.48
2018-03-03T07:35:10.322Z,-3.43
2018-03-03T07:36:13.835Z,-3.39
2018-03-03T07:37:17.342Z,-3.45
2018-03-03T07:38:20.874Z,-3.43
2018-03-03T07:39:24.591Z,-3.42
2018-03-03T07:40:28.399Z,-3.42
2018-03-03T07:41:31.837Z,-3.51
2018-03-03T07:42:35.373Z,-3.44
2018-03-03T07:43:38.832Z,-3.31
2018-03-03T07:44:42.279Z,-3.32
2018-03-03T07:45:45.752Z,-3.29
2018-03-03T07:46:49.497Z,-3.22
2018-03-03T07:47:52.869Z,-3.12
2018-03-03T07:48:56.373Z,-3.20
2018-03-03T07:50:00.101Z,-3.23
2018-03-03T07:51:03.673Z,-3.21
2018-03-03T07:52:07.125Z,-3.11
2018-03-03T07:53:10.947Z,-3.11
2018-03-03T07:54:14.365Z,-3.00
2018-03-03T07:55:17.870Z,-3.09
2018-03-03T07:56:21.355Z,-3.10
2018-03-03T07:57:24.651Z,-3.07
2018-03-03T07:58:27.940Z,-3.06
2018-03-03T07:59:31.487Z,-3.04
2018-03-03T08:00:34.662Z,-2.83
2018-03-03T08:01:38.085Z,-2.73
2018-03-03T08:02:41.578Z,-2.94
2018-03-03T08:03:45.062Z,-3.22
2018-03-03T08:04:48.582Z,-3.10
2018-03-03T08:05:52.285Z,-3.15
2018-03-03T08:06:55.697Z,-3.04
2018-03-03T08:07:59.315Z,-2.90
2018-03-03T08:09:02.749Z,-2.80
2018-03-03T08:10:06.443Z,-2.96
2018-03-03T08:11:09.753Z,-2.99
2018-03-03T08:12:13.398Z,-2.94
2018-03-03T08:13:16.828Z,-2.86
2018-03-03T08:14:20.226Z,-2.78
2018-03-03T08:15:23.579Z,-2.77
2018-03-03T08:16:26.948Z,-2.80
2018-03-03T08:17:30.279Z,-2.87
2018-03-03T08:18:34.028Z,-2.78
2018-03-03T08:19:37.318Z,-2.75
2018-03-03T08:20:40.801Z,-2.69
2018-03-03T08:21:44.304Z,-2.59
2018-03-03T08:22:47.802Z,-2.81
2018-03-03T08:23:51.248Z,-2.80
2018-03-03T08:24:55.384Z,-2.72
2018-03-03T08:25:59.340Z,-2.65
2018-03-03T08:27:02.878Z,-2.45
2018-03-03T08:28:06.285Z,-2.52
2018-03-03T08:29:09.629Z,-2.63
2018-03-03T08:30:13.079Z,-2.64
2018-03-03T08:31:16.926Z,-2.63
2018-03-03T08:32:20.285Z,-2.63
2018-03-03T08:33:23.637Z,-2.60
2018-03-03T08:34:27.897Z,-2.69
2018-03-03T08:35:31.269Z,-2.70
2018-03-03T08:36:34.745Z,-2.71
2018-03-03T08:37:38.787Z,-2.76
2018-03-03T08:38:42.300Z,-2.77
2018-03-03T08:39:45.620Z,-2.67
2018-03-03T08:40:48.973Z,-2.70
2018-03-03T08:41:52.333Z,-2.76
2018-03-03T08:42:55.962Z,-2.90
2018-03-03T08:43:59.309Z,-2.83
2018-03-03T08:45:02.736Z,-2.74
2018-03-03T08:46:06.086Z,-2.79
2018-03-03T08:47:09.564Z,-2.60
2018-03-03T08:48:12.870Z,-2.57
2018-03-03T08:49:16.637Z,-2.55
2018-03-03T08:50:19.934Z,-2.62
2018-03-03T08:51:23.241Z,-2.75
2018-03-03T08:52:26.773Z,-2.78
2018-03-03T08:53:30.256Z,-2.73
2018-03-03T08:54:33.678Z,-2.70
2018-03-03T08:55:37.445Z,-2.63
2018-03-03T08:56:40.801Z,-2.55
2018-03-03T08:57:44.199Z,-2.56
2018-03-03T08:58:47.589Z,-2.66
2018-03-03T08:59:50.863Z,-2.66
2018-03-03T09:00:54.044Z,-2.66
2018-03-03T09:01:57.859Z,-2.59
2018-03-03T09:03:01.293Z,-2.62
2018-03-03T09:04:04.582Z,-2.64
2018-03-03T09:05:07.912Z,-2.50
2018-03-03T09:06:11.266Z,-2.55
2018-03-03T09:07:14.738Z,-2.43
2018-03-03T09:08:18.397Z,-2.43
2018-03-03T09:09:21.755Z,-2.44
2018-03-03T09:10:25.069Z,-2.46
2018-03-03T09:11:28.252Z,-2.42
2018-03-03T09:12:31.534Z,-2.32
2018-03-03T09:13:34.843Z,-2.28
2018-03-03T09:14:38.326Z,-2.26
2018-03-03T09:15:42.864Z,-2.16
2018-03-03T09:16:46.293Z,-2.14
2018-03-03T09:17:50.168Z,-2.08
2018-03-03T09:18:53.656Z,-2.22
2018-03-03T09:19:57.139Z,-2.18
2018-03-03T09:21:00.847Z,-2.21
2018-03-03T09:22:04.226Z,-2.21
2018-03-03T09:23:07.615Z,-2.14
2018-03-03T09:24:10.925Z,-2.15
2018-03-03T09:25:14.169Z,-2.17
2018-03-03T09:26:17.417Z,-2.30
2018-03-03T09:27:21.158Z,-2.17
2018-03-03T09:28:25.586Z,-2.17
2018-03-03T09:29:28.874Z,-2.35
2018-03-03T09:30:32.197Z,-2.40
2018-03-03T09:31:35.409Z,-2.32
2018-03-03T09:32:38.959Z,-2.38
2018-03-03T09:33:42.573Z,-2.43
2018-03-03T09:34:45.871Z,-2.37
2018-03-03T09:35:49.201Z,-2.17
2018-03-03T09:36:52.437Z,-2.12
2018-03-03T09:37:55.667Z,-2.03
2018-03-03T09:38:59.433Z,-1.95
2018-03-03T09:40:03.559Z,-1.93
2018-03-03T09:41:07.242Z,-2.01
2018-03-03T09:42:11.174Z,-2.03
2018-03-03T09:43:15.082Z,-1.78
2018-03-03T09:44:18.905Z,-1.90
2018-03-03T09:45:22.160Z,-1.89
2018-03-03T09:46:25.748Z,-1.78
2018-03-03T09:47:29.834Z,-1.54
2018-03-03T09:48:33.182Z,-1.41
2018-03-03T09:49:36.443Z,-1.41
2018-03-03T09:50:39.610Z,-1.27
2018-03-03T09:51:42.849Z,-1.35
2018-03-03T09:52:46.444Z,-1.61
2018-03-03T09:53:49.784Z,-1.53
2018-03-03T09:54:53.077Z,-1.19
2018-03-03T09:55:56.383Z,-1.14
2018-03-03T09:56:59.704Z,-1.08
2018-03-03T09:58:03.689Z,-1.04
2018-03-03T09:59:07.722Z,-1.37
2018-03-03T10:00:11.021Z,-1.46
2018-03-03T10:01:14.319Z,-1.59
2018-03-03T10:02:17.471Z,-1.63
2018-03-03T10:03:20.845Z,-1.46
2018-03-03T10:04:24.123Z,-1.28
2018-03-03T10:05:28.579Z,-1.38
2018-03-03T10:06:31.994Z,-1.25
2018-03-03T10:07:35.709Z,-1.18
2018-03-03T10:08:38.943Z,-1.02
2018-03-03T10:09:42.268Z,-1.00
2018-03-03T10:10:45.513Z,-1.01
2018-03-03T10:11:49.326Z,-0.90
2018-03-03T10:12:53.539Z,-0.79
2018-03-03T10:13:56.793Z,-0.79
2018-03-03T10:15:00.786Z,-0.98
2018-03-03T10:16:04.756Z,-1.02
2018-03-03T10:17:08.903Z,-0.83
2018-03-03T10:18:12.512Z,-0.60
2018-03-03T10:19:16.823Z,-0.69
2018-03-03T10:20:20.535Z,-0.81
2018-03-03T10:21:23.758Z,-0.75
2018-03-03T10:22:27.553Z,-0.65
2018-03-03T10:23:31.100Z,-0.55
2018-03-03T10:24:34.731Z,-0.75
2018-03-03T10:25:38.544Z,-0.70
2018-03-03T10:26:42.489Z,-0.73
2018-03-03T10:27:46.130Z,-0.57
2018-03-03T10:28:49.394Z,-0.27
2018-03-03T10:29:53.658Z,-0.21
2018-03-03T10:30:57.304Z,-0.41
2018-03-03T10:32:02.038Z,-0.64
2018-03-03T10:33:05.722Z,-0.91
2018-03-03T10:34:09.107Z,-1.07
2018-03-03T10:35:12.484Z,-0.98
2018-03-03T10:36:16.082Z,-0.94
2018-03-03T10:37:20.174Z,-0.79
2018-03-03T10:38:23.420Z,-0.52
2018-03-03T10:39:26.783Z,-0.51
2018-03-03T10:40:29.917Z,-0.54
2018-03-03T10:41:33.077Z,-0.57
2018-03-03T10:42:36.651Z,-0.67
2018-03-03T10:43:39.817Z,-0.67
2018-03-03T10:44:42.974Z,-0.57
2018-03-03T10:45:46.478Z,-0.24
2018-03-03T10:46:49.751Z,-0.41
2018-03-03T10:47:52.989Z,-0.59
2018-03-03T10:48:56.512Z,-0.37
2018-03-03T10:49:59.822Z,-0.17
2018-03-03T10:51:03.165Z,-0.31
2018-03-03T10:52:06.560Z,-0.56
2018-03-03T10:53:09.874Z,-0.58
2018-03-03T10:54:13.188Z,-0.47
2018-03-03T10:55:16.871Z,-0.72
2018-03-03T10:56:20.089Z,-0.79
2018-03-03T10:57:23.397Z,-0.47
2018-03-03T10:58:26.685Z,-0.09
2018-03-03T10:59:30.292Z,0.06
2018-03-03T11:00:34.616Z,0.23
2018-03-03T11:01:39.474Z,0.27
2018-03-03T11:02:43.278Z,-0.16
2018-03-03T11:03:47.335Z,-0.42
2018-03-03T11:04:51.411Z,-0.47
2018-03-03T11:05:54.751Z,-0.45
2018-03-03T11:06:58.140Z,-0.37
2018-03-03T11:08:01.791Z,0.08
2018-03-03T11:09:07.331Z,0.31
2018-03-03T11:10:11.828Z,0.15
2018-03-03T11:11:16.771Z,0.16
2018-03-03T11:12:20.124Z,-0.01
2018-03-03T11:13:23.313Z,0.14
2018-03-03T11:14:26.874Z,0.28
2018-03-03T11:15:30.211Z,0.35
2018-03-03T11:16:33.676Z,0.34
2018-03-03T11:17:39.696Z,0.37
2018-03-03T11:18:43.179Z,0.46
2018-03-03T11:19:46.820Z,0.37
2018-03-03T11:20:50.125Z,0.25
2018-03-03T11:21:53.412Z,0.12
2018-03-03T11:22:56.626Z,0.05
2018-03-03T11:23:59.893Z,-0.22
2018-03-03T11:25:03.244Z,-0.15
2018-03-03T11:26:06.879Z,-0.05
2018-03-03T11:27:11.029Z,0.13
2018-03-03T11:28:14.455Z,-0.05
2018-03-03T11:29:17.610Z,-0.10
2018-03-03T11:30:20.855Z,-0.09
2018-03-03T11:31:24.280Z,-0.15
2018-03-03T11:32:27.944Z,0.01
2018-03-03T11:33:31.304Z,0.22
2018-03-03T11:34:34.632Z,0.34
2018-03-03T11:35:37.840Z,0.46
2018-03-03T11:36:41.136Z,0.26
2018-03-03T11:37:45.006Z,0.10
2018-03-03T11:38:48.837Z,0.03
2018-03-03T11:39:52.074Z,0.08
2018-03-03T11:40:55.269Z,0.27
2018-03-03T11:41:58.553Z,0.35
2018-03-03T11:43:01.876Z,0.09
2018-03-03T11:44:07.184Z,-0.17
2018-03-03T11:45:10.913Z,-0.32
2018-03-03T11:46:14.232Z,-0.44
2018-03-03T11:47:17.411Z,-0.39
2018-03-03T11:48:20.588Z,-0.38
2018-03-03T11:49:23.852Z,-0.04
2018-03-03T11:50:27.313Z,0.04
2018-03-03T11:51:30.883Z,-0.03
2018-03-03T11:52:34.087Z,0.18
2018-03-03T11:53:37.402Z,0.21
2018-03-03T11:54:40.689Z,0.23
2018-03-03T11:55:43.967Z,0.20
2018-03-03T11:56:47.732Z,0.10
2018-03-03T11:57:51.504Z,-0.16
2018-03-03T11:58:55.132Z,-0.21
2018-03-03T11:59:58.535Z,-0.24
2018-03-03T12:01:01.878Z,-0.25
2018-03-03T12:02:05.146Z,-0.03
2018-03-03T12:03:08.409Z,0.10
2018-03-03T12:04:11.998Z,0.16
2018-03-03T12:05:15.461Z,0.28
2018-03-03T12:06:18.721Z,0.08
2018-03-03T12:07:21.940Z,-0.09
2018-03-03T12:08:25.152Z,-0.08
2018-03-03T12:09:28.249Z,-0.08
2018-03-03T12:10:32.172Z,0.05
2018-03-03T12:11:35.429Z,-0.06
2018-03-03T12:12:38.678Z,-0.15
2018-03-03T12:13:41.926Z,-0.08
2018-03-03T12:14:45.134Z,0.04
2018-03-03T12:15:48.392Z,-0.17
2018-03-03T12:16:51.939Z,-0.20
2018-03-03T12:17:55.319Z,-0.12
2018-03-03T12:18:58.664Z,-0.12
2018-03-03T12:20:01.956Z,-0.23
2018-03-03T12:21:05.170Z,-0.01
2018-03-03T12:22:09.070Z,0.16
2018-03-03T12:23:12.709Z,0.29
2018-03-03T12:24:16.014Z,0.39
2018-03-03T12:25:19.803Z,0.22
2018-03-03T12:26:23.110Z,0.27
2018-03-03T12:27:26.614Z,0.16
2018-03-03T12:28:29.949Z,0.08
2018-03-03T12:29:34.874Z,0.08
2018-03-03T12:30:38.622Z,0.32
2018-03-03T12:31:41.999Z,0.30
2018-03-03T12:32:45.659Z,0.22
2018-03-03T12:33:49.199Z,0.24
2018-03-03T12:34:52.846Z,0.31
2018-03-03T12:35:56.711Z,0.41
2018-03-03T12:37:00.633Z,0.30
2018-03-03T12:38:04.256Z,0.27
2018-03-03T12:39:07.809Z,0.18
2018-03-03T12:40:11.022Z,0.27
2018-03-03T12:41:14.586Z,0.08
2018-03-03T12:42:17.741Z,0.09
2018-03-03T12:43:20.989Z,0.34
2018-03-03T12:44:24.219Z,0.18
2018-03-03T12:45:27.436Z,0.30
2018-03-03T12:46:30.728Z,0.16
2018-03-03T12:47:34.307Z,0.13
2018-03-03T12:48:37.500Z,0.23
2018-03-03T12:49:40.742Z,-0.11
2018-03-03T12:50:44.068Z,-0.21
2018-03-03T12:51:47.323Z,-0.08
2018-03-03T12:52:50.623Z,0.03
2018-03-03T12:53:54.164Z,0.14
2018-03-03T12:54:57.487Z,0.01
2018-03-03T12:56:00.740Z,0.08
2018-03-03T12:57:03.903Z,-0.09
2018-03-03T12:58:07.096Z,-0.32
2018-03-03T12:59:10.240Z,-0.30
2018-03-03T13:00:13.776Z,-0.08
2018-03-03T13:01:17.061Z,0.03
2018-03-03T13:02:20.341Z,0.05
2018-03-03T13:03:24.257Z,-0.03
2018-03-03T13:04:27.517Z,-0.04
2018-03-03T13:05:30.916Z,-0.03
2018-03-03T13:06:34.509Z,0.12
2018-03-03T13:07:37.724Z,0.13
2018-03-03T13:08:41.067Z,0.12
2018-03-03T13:09:44.417Z,0.15
2018-03-03T13:10:47.690Z,0.22
2018-03-03T13:11:50.994Z,0.33
2018-03-03T13:12:54.494Z,0.43
2018-03-03T13:13:57.769Z,0.53
2018-03-03T13:15:01.032Z,0.71
2018-03-03T13:16:04.351Z,0.69
2018-03-03T13:17:07.732Z,0.73
2018-03-03T13:18:11.004Z,0.56
2018-03-03T13:19:14.701Z,0.41
2018-03-03T13:20:17.941Z,0.29
2018-03-03T13:21:21.216Z,0.44
2018-03-03T13:22:24.452Z,0.51
2018-03-03T13:23:27.599Z,0.30
2018-03-03T13:24:30.733Z,0.24
2018-03-03T13:25:34.299Z,0.03
2018-03-03T13:26:37.520Z,-0.16
2018-03-03T13:27:40.766Z,-0.29
2018-03-03T13:28:43.988Z,-0.29
2018-03-03T13:29:47.178Z,-0.19
2018-03-03T13:30:50.367Z,-0.16
2018-03-03T13:31:53.940Z,-0.03
2018-03-03T13:32:57.088Z,0.19
2018-03-03T13:34:00.282Z,0.18
2018-03-03T13:35:03.541Z,-0.01
2018-03-03T13:36:06.858Z,-0.02
2018-03-03T13:37:10.108Z,-0.04
2018-03-03T13:38:13.741Z,-0.06
2018-03-03T13:39:17.018Z,-0.16
2018-03-03T13:40:20.447Z,-0.05
2018-03-03T13:41:23.791Z,-0.03
2018-03-03T13:42:27.015Z,-0.06